EPZG/IEG METAR and TAF weather

Enter ICAO airport designator
Station Type Date Time Source
EPZG METAR 2018/04/21 11:30 UTC NOAA

EPZG 211130Z 33009KT 290V010 9999 FEW048 22/10 Q1018


Station Type Date Time Source
EPZG Decoded METAR 2018/04/21 11:30 UTC NOAA

Zielona Gora, Poland (EPZG) 51-56N 015-32E 192M
Apr 21, 2018 - 07:30 AM EDT / 2018.04.21 1130 UTC
Wind: from the NNW (330 degrees) at 10 MPH (9 KT) (direction variable):0
Visibility: greater than 7 mile(s):0
Sky conditions: mostly clear
Temperature: 71 F (22 C)
Dew Point: 50 F (10 C)
Relative Humidity: 46%
Pressure (altimeter): 30.06 in. Hg (1018 hPa)
ob: EPZG 211130Z 33009KT 290V010 9999 FEW048 22/10 Q1018
cycle: 11

Station Type Date Time Source
EPZG TAF 2012/06/28 21:49 UTC NOAA

TAF EPZG 282000Z 2821/2906 VRB02KT CAVOK
TEMPO 2823/2904 5000 BR PROB30 2900/2904 1500 BR BKN005


Example: see airport list